Time;durP1;ratioP1;P1;durP2;ratioP2;P2;SDS_P1;SDS_P2;PMS_P1;PMS_P2;Temp;Humidity;BMP_temperature;BMP_pressure;BME280_temperature;BME280_humidity;BME280_pressure;Samples;Min_cycle;Max_cycle;Signal;HPM_P1;HPM_P2
2023/10/06 00:14:40;;;;;;;19.73;11.15;;;;;;;;;;10268958;23;20499;-95
2023/10/06 00:18:43;;;;;;;26.13;11.40;;;;;;;;;;10294840;23;20028;-93
2023/10/06 00:22:47;;;;;;;18.10;9.07;;;;;;;;;;10295996;23;20103;-96
2023/10/06 00:26:51;;;;;;;19.05;10.50;;;;;;;;;;10295462;23;20062;-93
2023/10/06 00:30:57;;;;;;;18.92;10.38;;;;;;;;;;10295250;23;20076;-92
2023/10/06 00:35:08;;;;;;;17.85;9.15;;;;;;;;;;10311315;23;20021;-95
2023/10/06 00:39:12;;;;;;;16.05;7.80;;;;;;;;;;10311818;23;20038;-94
2023/10/06 00:43:20;;;;;;;19.58;9.10;;;;;;;;;;10294374;23;20024;-94
2023/10/06 00:47:25;;;;;;;17.48;7.60;;;;;;;;;;10295673;23;20021;-93
2023/10/06 00:51:30;;;;;;;15.93;7.68;;;;;;;;;;10295277;23;20027;-93
2023/10/06 00:55:33;;;;;;;16.38;7.50;;;;;;;;;;10295076;23;20451;-93
2023/10/06 00:59:37;;;;;;;15.18;7.07;;;;;;;;;;10294853;23;20057;-93
2023/10/06 01:03:48;;;;;;;17.52;7.85;;;;;;;;;;10311515;23;20024;-92
2023/10/06 01:07:51;;;;;;;18.65;8.68;;;;;;;;;;10293137;23;20504;-93
2023/10/06 01:11:55;;;;;;;24.30;8.77;;;;;;;;;;10264436;23;20021;-94
2023/10/06 01:15:59;;;;;;;17.80;7.72;;;;;;;;;;10234032;23;20017;-94
2023/10/06 01:20:05;;;;;;;24.33;11.15;;;;;;;;;;10234234;23;20053;-94
2023/10/06 01:24:13;;;;;;;22.83;9.32;;;;;;;;;;10234286;23;20021;-93
2023/10/06 01:28:16;;;;;;;23.13;10.10;;;;;;;;;;10250171;23;20021;-93
2023/10/06 01:32:21;;;;;;;25.02;9.98;;;;;;;;;;10234639;23;20104;-94
2023/10/06 01:36:25;;;;;;;21.30;8.45;;;;;;;;;;10234611;23;20143;-94
2023/10/06 01:40:43;;;;;;;21.08;9.00;;;;;;;;;;10234783;23;20147;-93
2023/10/06 01:44:47;;;;;;;24.63;10.43;;;;;;;;;;10234366;23;20028;-94
2023/10/06 01:48:50;;;;;;;16.98;8.20;;;;;;;;;;10234483;23;20040;-94
2023/10/06 01:52:53;;;;;;;17.48;8.10;;;;;;;;;;10234601;23;20087;-92
2023/10/06 01:56:57;;;;;;;17.17;8.60;;;;;;;;;;10234719;23;20441;-94
2023/10/06 02:01:00;;;;;;;17.15;7.75;;;;;;;;;;10235147;23;20021;-95
2023/10/06 02:05:06;;;;;;;16.52;7.63;;;;;;;;;;10234690;23;20068;-94
2023/10/06 02:09:15;;;;;;;20.38;8.02;;;;;;;;;;10250520;23;20095;-95
2023/10/06 02:13:21;;;;;;;21.25;9.15;;;;;;;;;;10234423;23;20064;-93
2023/10/06 02:17:24;;;;;;;25.15;9.13;;;;;;;;;;10234434;23;20082;-94
2023/10/06 02:21:29;;;;;;;17.90;9.52;;;;;;;;;;10233714;23;20021;-94
2023/10/06 02:25:32;;;;;;;18.65;8.75;;;;;;;;;;10235087;23;20078;-93
2023/10/06 02:29:37;;;;;;;22.45;8.98;;;;;;;;;;10233988;23;20394;-95
2023/10/06 02:33:41;;;;;;;18.67;9.18;;;;;;;;;;10233127;23;20099;-95
2023/10/06 02:37:45;;;;;;;17.67;8.23;;;;;;;;;;10233568;23;20021;-94
2023/10/06 02:41:49;;;;;;;19.77;9.38;;;;;;;;;;10233825;23;20061;-94
2023/10/06 02:46:03;;;;;;;20.48;8.63;;;;;;;;;;10234714;23;20159;-96
2023/10/06 02:50:12;;;;;;;18.25;8.40;;;;;;;;;;10250851;23;20021;-92
2023/10/06 02:54:27;;;;;;;18.65;8.43;;;;;;;;;;10250811;23;20043;-94
2023/10/06 02:58:33;;;;;;;19.98;9.52;;;;;;;;;;10233763;23;20074;-94
2023/10/06 03:02:40;;;;;;;13.18;8.10;;;;;;;;;;10232801;23;20113;-95
2023/10/06 03:06:52;;;;;;;20.02;8.55;;;;;;;;;;10250100;23;20031;-93
2023/10/06 03:10:55;;;;;;;16.25;7.95;;;;;;;;;;10246526;23;20021;-93
2023/10/06 03:14:58;;;;;;;16.20;8.30;;;;;;;;;;10232466;23;20032;-92
2023/10/06 03:19:05;;;;;;;17.88;8.70;;;;;;;;;;10231111;22;20018;-93
2023/10/06 03:23:24;;;;;;;20.17;9.52;;;;;;;;;;10183424;23;20032;-91
2023/10/06 03:27:27;;;;;;;14.75;8.63;;;;;;;;;;10183373;23;20014;-92
2023/10/06 03:31:44;;;;;;;29.00;10.25;;;;;;;;;;10182615;23;20066;-93
2023/10/06 03:35:49;;;;;;;19.70;8.63;;;;;;;;;;10182187;23;20097;-92
2023/10/06 03:39:53;;;;;;;26.00;9.90;;;;;;;;;;10183428;23;20092;-93
2023/10/06 03:44:00;;;;;;;19.17;8.95;;;;;;;;;;10183361;23;20159;-94
2023/10/06 03:48:11;;;;;;;24.25;10.43;;;;;;;;;;10183465;23;20056;-94
2023/10/06 03:52:16;;;;;;;20.57;10.07;;;;;;;;;;10182675;23;20397;-93
2023/10/06 03:56:19;;;;;;;22.42;10.00;;;;;;;;;;10183326;23;20070;-94
2023/10/06 04:00:26;;;;;;;18.85;9.60;;;;;;;;;;10182996;23;20087;-93
2023/10/06 04:04:29;;;;;;;19.38;9.93;;;;;;;;;;10182580;23;20101;-94
2023/10/06 04:08:34;;;;;;;19.80;9.73;;;;;;;;;;10184336;23;20021;-94
2023/10/06 04:12:37;;;;;;;24.25;9.57;;;;;;;;;;10184670;23;20024;-94
2023/10/06 04:16:45;;;;;;;18.65;8.55;;;;;;;;;;10183683;23;20083;-94
2023/10/06 04:20:48;;;;;;;22.77;9.70;;;;;;;;;;10192977;23;20022;-94
2023/10/06 04:24:53;;;;;;;20.08;9.73;;;;;;;;;;10184516;23;20510;-95
2023/10/06 04:28:59;;;;;;;16.80;8.80;;;;;;;;;;10183790;23;20021;-94
2023/10/06 04:33:03;;;;;;;30.75;19.00;;;;;;;;;;10200438;23;20025;-95
2023/10/06 04:37:07;;;;;;;23.20;10.13;;;;;;;;;;10183427;23;20028;-94
2023/10/06 04:41:14;;;;;;;24.13;10.23;;;;;;;;;;10183714;23;20049;-94
2023/10/06 04:45:17;;;;;;;16.90;8.70;;;;;;;;;;10185179;23;20053;-94
2023/10/06 04:49:20;;;;;;;19.88;9.52;;;;;;;;;;10186493;23;20052;-95
2023/10/06 04:53:23;;;;;;;18.70;9.70;;;;;;;;;;10185744;23;20056;-95
2023/10/06 04:57:28;;;;;;;23.95;10.68;;;;;;;;;;10186150;23;20025;-94
2023/10/06 05:01:31;;;;;;;19.65;12.23;;;;;;;;;;10185521;23;20345;-95
2023/10/06 05:05:37;;;;;;;16.40;9.38;;;;;;;;;;10185532;23;20032;-94
2023/10/06 05:09:41;;;;;;;16.38;7.95;;;;;;;;;;10184692;23;20026;-93
2023/10/06 05:13:49;;;;;;;17.52;9.20;;;;;;;;;;10184268;23;20049;-93
2023/10/06 05:17:55;;;;;;;19.90;7.55;;;;;;;;;;10184876;23;20028;-94
2023/10/06 05:21:58;;;;;;;17.95;8.07;;;;;;;;;;10185107;23;20449;-94
2023/10/06 05:26:02;;;;;;;13.30;6.85;;;;;;;;;;10159437;23;20100;-94
2023/10/06 05:30:08;;;;;;;17.23;8.15;;;;;;;;;;10185046;23;20017;-94
2023/10/06 05:34:17;;;;;;;17.73;8.55;;;;;;;;;;10184906;23;20044;-94
2023/10/06 05:38:20;;;;;;;16.45;7.82;;;;;;;;;;10185320;23;20021;-93
2023/10/06 05:42:23;;;;;;;16.95;7.65;;;;;;;;;;10184810;23;20029;-95
2023/10/06 05:46:29;;;;;;;18.48;7.93;;;;;;;;;;10187384;23;20021;-94
2023/10/06 05:50:35;;;;;;;12.45;7.47;;;;;;;;;;10203632;23;20506;-96
2023/10/06 05:54:40;;;;;;;15.52;7.68;;;;;;;;;;10202480;23;20030;-96
2023/10/06 05:58:44;;;;;;;16.25;7.97;;;;;;;;;;10194404;23;20028;-96
2023/10/06 06:02:50;;;;;;;14.52;7.60;;;;;;;;;;10195927;23;20033;-93
2023/10/06 06:06:57;;;;;;;14.57;6.95;;;;;;;;;;10193354;23;20062;-95
2023/10/06 06:11:00;;;;;;;13.63;7.22;;;;;;;;;;10190616;23;20037;-91
2023/10/06 06:15:04;;;;;;;15.38;6.40;;;;;;;;;;10180699;23;20048;-90
2023/10/06 06:19:08;;;;;;;14.65;7.10;;;;;;;;;;10153830;23;20349;-91
2023/10/06 06:23:20;;;;;;;15.77;6.55;;;;;;;;;;10203585;23;20099;-94
2023/10/06 06:27:23;;;;;;;14.73;6.83;;;;;;;;;;10208294;23;20021;-95
2023/10/06 06:31:28;;;;;;;14.48;7.00;;;;;;;;;;10165384;23;20036;-95
2023/10/06 06:35:39;;;;;;;12.07;6.40;;;;;;;;;;10195101;23;20025;-95
2023/10/06 06:39:49;;;;;;;12.98;6.15;;;;;;;;;;10263836;22;20026;-94
2023/10/06 06:50:27;;;;;;;20.65;7.10;;;;;;;;;;10492152;22;20045;-96
2023/10/06 06:55:20;;;;;;;15.25;6.53;;;;;;;;;;10339496;23;20395;-92
2023/10/06 06:59:25;;;;;;;13.43;5.78;;;;;;;;;;10347678;23;20031;-95
2023/10/06 07:03:29;;;;;;;16.33;6.45;;;;;;;;;;10320557;23;20020;-92
2023/10/06 07:07:34;;;;;;;12.57;6.50;;;;;;;;;;10339822;23;20395;-91
2023/10/06 07:11:46;;;;;;;14.43;6.57;;;;;;;;;;10342640;23;20036;-92
2023/10/06 07:15:49;;;;;;;16.48;6.60;;;;;;;;;;10352941;23;20059;-94
2023/10/06 07:19:53;;;;;;;17.30;8.25;;;;;;;;;;10339993;23;20352;-94
2023/10/06 07:23:57;;;;;;;15.55;8.38;;;;;;;;;;10346786;23;20031;-94
2023/10/06 07:32:56;;;;;;;20.35;9.75;;;;;;;;;;10498654;22;20023;-92
2023/10/06 07:37:03;;;;;;;13.68;8.25;;;;;;;;;;10474019;22;20053;-91
2023/10/06 07:41:18;;;;;;;21.83;9.48;;;;;;;;;;10520063;22;20034;-92
2023/10/06 07:45:26;;;;;;;16.30;9.40;;;;;;;;;;10523759;22;20019;-95
2023/10/06 07:49:34;;;;;;;21.30;9.88;;;;;;;;;;10514534;22;20015;-93
2023/10/06 07:54:02;;;;;;;18.20;9.80;;;;;;;;;;10493614;22;20052;-94
2023/10/06 07:58:05;;;;;;;17.75;9.57;;;;;;;;;;10493225;22;20023;-91
2023/10/06 08:02:13;;;;;;;18.33;9.75;;;;;;;;;;10501250;22;20089;-92
2023/10/06 08:10:34;;;;;;;17.42;9.45;;;;;;;;;;10499947;22;20018;-95
2023/10/06 08:14:37;;;;;;;17.98;9.43;;;;;;;;;;10493584;22;20022;-90
2023/10/06 08:18:42;;;;;;;17.70;9.32;;;;;;;;;;10493810;22;20052;-92
2023/10/06 08:22:46;;;;;;;20.13;9.93;;;;;;;;;;10513850;22;20038;-95
2023/10/06 08:26:49;;;;;;;17.60;9.32;;;;;;;;;;10495718;22;20054;-94
2023/10/06 08:30:52;;;;;;;16.52;8.68;;;;;;;;;;10494822;22;20050;-94
2023/10/06 08:34:57;;;;;;;16.23;8.18;;;;;;;;;;10494245;22;20389;-93
2023/10/06 08:39:00;;;;;;;17.23;8.20;;;;;;;;;;10495370;22;20015;-92
2023/10/06 08:43:08;;;;;;;14.20;7.95;;;;;;;;;;10495941;22;20064;-94
2023/10/06 08:47:13;;;;;;;13.18;7.50;;;;;;;;;;10510482;22;20094;-87
2023/10/06 08:51:25;;;;;;;11.07;7.20;;;;;;;;;;10499575;22;20092;-89
2023/10/06 08:55:29;;;;;;;12.32;7.40;;;;;;;;;;10509215;22;20022;-87
2023/10/06 08:59:33;;;;;;;27.95;9.85;;;;;;;;;;10492437;22;20018;-88
2023/10/06 09:03:38;;;;;;;15.93;7.65;;;;;;;;;;10491427;22;20022;-88
2023/10/06 09:07:59;;;;;;;12.20;7.53;;;;;;;;;;10509164;22;20042;-88
2023/10/06 09:12:03;;;;;;;10.65;6.38;;;;;;;;;;10508976;22;20111;-88
2023/10/06 09:16:07;;;;;;;12.07;7.13;;;;;;;;;;10491640;22;20094;-89
2023/10/06 09:20:11;;;;;;;12.43;6.70;;;;;;;;;;10491882;22;20023;-89
2023/10/06 09:24:19;;;;;;;10.93;7.15;;;;;;;;;;10491806;22;20014;-87
2023/10/06 09:28:26;;;;;;;8.75;6.25;;;;;;;;;;10509315;22;20011;-87
2023/10/06 09:32:29;;;;;;;9.68;5.90;;;;;;;;;;10509412;22;20576;-87
2023/10/06 09:36:33;;;;;;;11.98;6.60;;;;;;;;;;10492161;22;20106;-86
2023/10/06 09:40:43;;;;;;;10.52;6.55;;;;;;;;;;10491750;22;20018;-87
2023/10/06 09:44:49;;;;;;;10.63;7.28;;;;;;;;;;10509323;22;20075;-87
2023/10/06 09:48:53;;;;;;;12.02;7.53;;;;;;;;;;10508663;22;20354;-87
2023/10/06 09:53:00;;;;;;;12.88;7.70;;;;;;;;;;10508826;22;20037;-86
2023/10/06 09:57:10;;;;;;;13.13;8.07;;;;;;;;;;10509055;22;20053;-87
2023/10/06 10:01:15;;;;;;;12.05;6.40;;;;;;;;;;10509142;22;20018;-88
2023/10/06 10:05:19;;;;;;;10.23;5.25;;;;;;;;;;10493049;22;20431;-87
2023/10/06 10:09:24;;;;;;;9.65;4.80;;;;;;;;;;10490743;22;20018;-89
2023/10/06 10:13:45;;;;;;;11.32;5.47;;;;;;;;;;10491269;22;20022;-86
2023/10/06 10:18:00;;;;;;;15.07;5.00;;;;;;;;;;10490386;22;20026;-88
2023/10/06 10:22:03;;;;;;;9.20;4.70;;;;;;;;;;10506641;22;20033;-88
2023/10/06 10:26:16;;;;;;;8.63;4.75;;;;;;;;;;10492658;22;20094;-90
2023/10/06 10:30:53;;;;;;;7.60;4.15;;;;;;;;;;10505152;22;20018;-91
2023/10/06 10:35:16;;;;;;;9.27;4.05;;;;;;;;;;10502766;22;20014;-89
2023/10/06 10:39:20;;;;;;;8.07;4.25;;;;;;;;;;10503572;22;20019;-89
2023/10/06 10:43:23;;;;;;;9.43;4.40;;;;;;;;;;10489529;22;20023;-88
2023/10/06 10:47:27;;;;;;;8.85;4.75;;;;;;;;;;10490085;22;20015;-90
2023/10/06 10:51:33;;;;;;;8.50;4.80;;;;;;;;;;10482844;22;20397;-90
2023/10/06 10:55:39;;;;;;;14.15;4.78;;;;;;;;;;10501603;22;20442;-90
2023/10/06 11:00:13;;;;;;;7.45;4.07;;;;;;;;;;10502383;22;20042;-90
2023/10/06 11:04:37;;;;;;;8.00;4.28;;;;;;;;;;10503338;22;20026;-92
2023/10/06 11:08:40;;;;;;;8.43;4.18;;;;;;;;;;10502172;22;20046;-89
2023/10/06 11:12:43;;;;;;;8.93;4.20;;;;;;;;;;10486411;22;20025;-90
2023/10/06 11:16:47;;;;;;;7.38;4.05;;;;;;;;;;10486063;22;20071;-89
2023/10/06 11:20:54;;;;;;;10.13;3.88;;;;;;;;;;10484284;22;20023;-90
2023/10/06 11:25:06;;;;;;;9.73;3.95;;;;;;;;;;10502002;22;20018;-91
2023/10/06 11:29:09;;;;;;;7.57;4.32;;;;;;;;;;10506470;22;20098;-92
2023/10/06 11:33:13;;;;;;;7.70;4.07;;;;;;;;;;10485346;22;20023;-90
2023/10/06 11:37:22;;;;;;;5.90;3.40;;;;;;;;;;10484050;22;20015;-89
2023/10/06 11:41:25;;;;;;;6.32;3.75;;;;;;;;;;10483685;22;20027;-92
2023/10/06 11:45:30;;;;;;;5.00;3.40;;;;;;;;;;10485800;22;20343;-90
2023/10/06 11:49:35;;;;;;;5.78;3.50;;;;;;;;;;10483859;22;20433;-90
2023/10/06 11:53:40;;;;;;;8.35;3.90;;;;;;;;;;10501912;22;20018;-90
2023/10/06 11:57:46;;;;;;;7.05;3.47;;;;;;;;;;10486159;22;20026;-91
2023/10/06 12:01:48;;;;;;;8.98;3.10;;;;;;;;;;10484470;22;20454;-93
2023/10/06 12:05:56;;;;;;;7.05;3.20;;;;;;;;;;10486013;22;20522;-91
2023/10/06 12:10:05;;;;;;;7.03;3.08;;;;;;;;;;10485525;22;20477;-91
2023/10/06 12:14:11;;;;;;;4.63;2.72;;;;;;;;;;10485052;22;20129;-90
2023/10/06 12:18:15;;;;;;;6.57;2.92;;;;;;;;;;10483477;22;20111;-90
2023/10/06 12:22:23;;;;;;;5.50;2.60;;;;;;;;;;10482467;22;20029;-91
2023/10/06 12:26:34;;;;;;;5.07;2.80;;;;;;;;;;10484916;22;20042;-90
2023/10/06 12:30:37;;;;;;;3.95;2.42;;;;;;;;;;10489577;22;20487;-91
2023/10/06 12:34:44;;;;;;;5.32;2.55;;;;;;;;;;10485890;22;20023;-91
2023/10/06 12:38:47;;;;;;;5.22;2.35;;;;;;;;;;10483907;22;20022;-89
2023/10/06 12:42:53;;;;;;;6.18;2.42;;;;;;;;;;10487896;22;20026;-91
2023/10/06 12:46:56;;;;;;;6.85;2.20;;;;;;;;;;10503037;22;20015;-90
2023/10/06 12:50:59;;;;;;;5.90;2.50;;;;;;;;;;10491326;22;20014;-92
2023/10/06 12:55:14;;;;;;;5.25;2.53;;;;;;;;;;10490051;22;20019;-93
2023/10/06 12:59:32;;;;;;;5.07;2.50;;;;;;;;;;10516076;22;20038;-94
2023/10/06 13:03:49;;;;;;;5.93;2.60;;;;;;;;;;10505751;22;20067;-96
2023/10/06 13:07:52;;;;;;;6.18;3.00;;;;;;;;;;10490112;22;20501;-91
2023/10/06 13:11:56;;;;;;;5.47;3.38;;;;;;;;;;10488827;22;20087;-94
2023/10/06 13:16:00;;;;;;;4.68;2.90;;;;;;;;;;10487549;22;20046;-91
2023/10/06 13:20:07;;;;;;;6.95;3.25;;;;;;;;;;10485991;22;20059;-90
2023/10/06 13:24:13;;;;;;;5.72;3.10;;;;;;;;;;10503985;22;20026;-91
2023/10/06 13:28:24;;;;;;;8.73;3.35;;;;;;;;;;10506422;22;20339;-90
2023/10/06 13:32:30;;;;;;;5.85;3.28;;;;;;;;;;10493828;22;20018;-93
2023/10/06 13:36:34;;;;;;;8.38;3.90;;;;;;;;;;10508817;22;20015;-94
2023/10/06 13:40:38;;;;;;;8.05;4.07;;;;;;;;;;10491270;22;20034;-93
2023/10/06 13:44:41;;;;;;;10.13;4.10;;;;;;;;;;10492158;22;20022;-94
2023/10/06 13:48:45;;;;;;;10.30;4.45;;;;;;;;;;10494189;22;20629;-94
2023/10/06 13:52:50;;;;;;;6.22;3.65;;;;;;;;;;10497722;22;20018;-93
2023/10/06 14:01:47;;;;;;;6.65;3.83;;;;;;;;;;10516361;22;20015;-93
2023/10/06 14:06:16;;;;;;;7.88;4.38;;;;;;;;;;10514834;22;20030;-93
2023/10/06 14:30:11;;;;;;;9.57;4.40;;;;;;;;;;10469990;22;20015;-94
2023/10/06 15:09:33;;;;;;;5.85;3.85;;;;;;;;;;10159409;23;20049;-95
2023/10/06 15:14:25;;;;;;;7.93;4.30;;;;;;;;;;10167531;23;20030;-95
2023/10/06 15:19:20;;;;;;;8.80;4.75;;;;;;;;;;10108713;23;20403;-95
2023/10/06 15:23:42;;;;;;;7.40;4.40;;;;;;;;;;10160641;23;20018;-94
2023/10/06 15:28:38;;;;;;;9.95;4.25;;;;;;;;;;10160680;23;20041;-96
2023/10/06 15:33:19;;;;;;;10.32;5.63;;;;;;;;;;10308646;22;20023;-96
2023/10/06 15:57:28;;;;;;;8.27;5.32;;;;;;;;;;10319006;23;20027;-95
2023/10/06 16:06:42;;;;;;;10.57;5.72;;;;;;;;;;10258770;23;20048;-95
2023/10/06 16:11:07;;;;;;;11.88;5.30;;;;;;;;;;10106308;23;20066;-94
2023/10/06 16:20:16;;;;;;;10.98;5.80;;;;;;;;;;10104381;23;20072;-95
2023/10/06 16:24:54;;;;;;;10.25;5.93;;;;;;;;;;10160233;22;20050;-94
2023/10/06 16:29:41;;;;;;;10.43;5.88;;;;;;;;;;10511129;22;20019;-94
2023/10/06 16:44:08;;;;;;;10.52;5.00;;;;;;;;;;10065124;23;20023;-95
2023/10/06 16:53:21;;;;;;;13.43;7.32;;;;;;;;;;9983653;23;20051;-95
2023/10/06 17:40:22;;;;;;;19.88;14.10;;;;;;;;;;9749417;24;20119;-93
2023/10/06 17:44:44;;;;;;;17.42;12.05;;;;;;;;;;9703825;24;20025;-94
2023/10/06 17:54:46;;;;;;;8.48;5.38;;;;;;;;;;9753249;24;20097;-93
2023/10/06 18:09:17;;;;;;;7.20;4.82;;;;;;;;;;9832512;24;20036;-93
2023/10/06 18:14:29;;;;;;;9.68;5.00;;;;;;;;;;9930813;24;20024;-91
2023/10/06 18:19:01;;;;;;;7.97;5.22;;;;;;;;;;9887964;24;20024;-94
2023/10/06 18:23:30;;;;;;;9.20;4.68;;;;;;;;;;9951701;23;20048;-93
2023/10/06 18:32:43;;;;;;;22.50;14.93;;;;;;;;;;10251095;23;20425;-94
2023/10/06 18:37:07;;;;;;;13.00;6.68;;;;;;;;;;10259583;23;20025;-93
2023/10/06 18:41:36;;;;;;;9.23;5.22;;;;;;;;;;10320215;22;20019;-94
2023/10/06 18:50:33;;;;;;;7.93;4.07;;;;;;;;;;10462808;22;20346;-94
2023/10/06 18:54:51;;;;;;;6.95;4.80;;;;;;;;;;10311437;23;20024;-94
2023/10/06 18:59:29;;;;;;;8.23;5.07;;;;;;;;;;10300987;23;20047;-93
2023/10/06 19:08:31;;;;;;;10.93;5.40;;;;;;;;;;10097819;23;20509;-93
2023/10/06 19:12:50;;;;;;;14.15;5.00;;;;;;;;;;10118243;23;20498;-93
2023/10/06 19:17:07;;;;;;;10.07;5.20;;;;;;;;;;10132442;23;20021;-93
2023/10/06 19:21:20;;;;;;;13.40;5.72;;;;;;;;;;10136471;23;20514;-94
2023/10/06 19:25:35;;;;;;;9.82;5.45;;;;;;;;;;10156160;23;20022;-93
2023/10/06 19:29:57;;;;;;;9.63;5.80;;;;;;;;;;9967928;23;20035;-92
2023/10/06 19:34:04;;;;;;;11.63;5.38;;;;;;;;;;9948686;23;20031;-93
2023/10/06 19:38:11;;;;;;;10.32;5.50;;;;;;;;;;9959719;23;20070;-93
2023/10/06 19:42:33;;;;;;;9.57;5.18;;;;;;;;;;9967325;23;20103;-93
2023/10/06 19:47:25;;;;;;;9.95;5.20;;;;;;;;;;10152676;23;20060;-93
2023/10/06 19:51:49;;;;;;;12.35;5.40;;;;;;;;;;10143468;23;20018;-93
2023/10/06 20:00:42;;;;;;;9.65;5.15;;;;;;;;;;10012771;23;20029;-93
2023/10/06 20:05:08;;;;;;;9.95;5.13;;;;;;;;;;10006036;23;20533;-93
2023/10/06 20:09:36;;;;;;;10.80;5.43;;;;;;;;;;10052962;23;20019;-94
2023/10/06 20:13:56;;;;;;;11.75;5.10;;;;;;;;;;9891785;23;20024;-93
2023/10/06 20:28:11;;;;;;;11.93;5.15;;;;;;;;;;9923246;23;20121;-92
2023/10/06 20:33:02;;;;;;;10.93;5.38;;;;;;;;;;9884980;24;20010;-93
2023/10/06 20:37:55;;;;;;;10.55;5.45;;;;;;;;;;10028165;23;20023;-94
2023/10/06 20:48:17;;;;;;;9.25;5.35;;;;;;;;;;10272184;23;20368;-94
2023/10/06 20:52:23;;;;;;;11.55;5.72;;;;;;;;;;10172576;23;20029;-92
2023/10/06 21:01:51;;;;;;;11.48;4.88;;;;;;;;;;10129921;23;20022;-93
2023/10/06 21:20:48;;;;;;;12.70;5.03;;;;;;;;;;9990635;23;20144;-94
2023/10/06 21:42:30;;;;;;;7.20;4.45;;;;;;;;;;10032656;23;20034;-94
2023/10/06 21:47:19;;;;;;;11.77;5.10;;;;;;;;;;9894060;24;20024;-94
2023/10/06 21:52:10;;;;;;;10.93;4.72;;;;;;;;;;9935137;24;20040;-95
2023/10/06 22:01:24;;;;;;;11.23;5.13;;;;;;;;;;9979481;23;20051;-92
2023/10/06 22:05:27;;;;;;;12.23;5.30;;;;;;;;;;9948276;23;20061;-94
2023/10/06 22:09:30;;;;;;;9.00;5.40;;;;;;;;;;9948486;23;20060;-92
2023/10/06 22:13:33;;;;;;;13.20;5.70;;;;;;;;;;9963010;23;20122;-92
2023/10/06 22:17:39;;;;;;;10.93;5.53;;;;;;;;;;9941369;23;20027;-92
2023/10/06 22:21:43;;;;;;;11.55;5.30;;;;;;;;;;10165287;23;20107;-93
2023/10/06 22:25:45;;;;;;;11.32;5.93;;;;;;;;;;10183320;23;20025;-93
2023/10/06 22:29:51;;;;;;;9.07;5.35;;;;;;;;;;10491659;22;20014;-92
2023/10/06 22:38:14;;;;;;;11.35;5.28;;;;;;;;;;10492175;22;20023;-91
2023/10/06 22:42:17;;;;;;;11.07;5.50;;;;;;;;;;10494267;22;20018;-92
2023/10/06 22:46:20;;;;;;;9.85;5.03;;;;;;;;;;10493990;22;20050;-93
2023/10/06 22:50:25;;;;;;;10.38;5.15;;;;;;;;;;10493649;22;20014;-93
2023/10/06 22:54:28;;;;;;;8.27;4.45;;;;;;;;;;10493642;22;20022;-91
2023/10/06 22:58:32;;;;;;;11.40;4.70;;;;;;;;;;10494008;22;20014;-92
2023/10/06 23:02:35;;;;;;;10.48;4.75;;;;;;;;;;10493749;22;20018;-92
2023/10/06 23:06:39;;;;;;;13.05;4.90;;;;;;;;;;10493204;22;20025;-92
2023/10/06 23:10:42;;;;;;;11.07;4.63;;;;;;;;;;10493616;22;20094;-93
2023/10/06 23:14:45;;;;;;;9.82;4.60;;;;;;;;;;10493404;22;20097;-93
2023/10/06 23:18:48;;;;;;;13.13;4.25;;;;;;;;;;10493532;22;20019;-92
2023/10/06 23:22:57;;;;;;;7.78;4.30;;;;;;;;;;10492820;22;20068;-92
2023/10/06 23:27:00;;;;;;;10.38;4.30;;;;;;;;;;10492702;22;20026;-92
2023/10/06 23:31:03;;;;;;;9.10;4.50;;;;;;;;;;10492542;22;20065;-92
2023/10/06 23:35:08;;;;;;;9.15;3.92;;;;;;;;;;10493856;22;20063;-92
2023/10/06 23:39:12;;;;;;;8.13;4.20;;;;;;;;;;10492742;22;20019;-92
2023/10/06 23:43:15;;;;;;;9.27;4.10;;;;;;;;;;10492846;22;20054;-91
2023/10/06 23:47:22;;;;;;;9.35;4.15;;;;;;;;;;10492225;22;20018;-93
2023/10/06 23:51:25;;;;;;;9.63;3.70;;;;;;;;;;10509830;22;20466;-93
2023/10/06 23:55:31;;;;;;;10.30;3.90;;;;;;;;;;10492515;22;20094;-92
2023/10/06 23:59:40;;;;;;;7.85;4.03;;;;;;;;;;10492853;22;20094;-91
